createdAt,value
2023-01-15T00:00:44.813Z,2.4
2023-01-15T00:04:06.245Z,2.2
2023-01-15T00:07:03.452Z,2.5
2023-01-15T00:09:57.616Z,3.5
2023-01-15T00:13:09.410Z,1.9
2023-01-15T00:16:02.342Z,3.6
2023-01-15T00:19:25.931Z,3
2023-01-15T00:22:08.526Z,2.4
2023-01-15T00:25:13.784Z,1.7
2023-01-15T00:28:27.212Z,2.7
2023-01-15T00:31:38.595Z,2.3
2023-01-15T00:34:58.386Z,2.7
2023-01-15T00:37:52.259Z,3.1
2023-01-15T00:40:56.786Z,2.1
2023-01-15T00:43:52.528Z,2.3
2023-01-15T00:47:09.539Z,3.2
2023-01-15T00:50:03.966Z,1.6
2023-01-15T00:53:08.658Z,1.7
2023-01-15T00:56:11.250Z,1.7
2023-01-15T00:59:19.538Z,2.3
2023-01-15T01:02:22.024Z,1.4
2023-01-15T01:05:27.209Z,1.5
2023-01-15T01:08:29.701Z,1.6
2023-01-15T01:11:46.453Z,2.1
2023-01-15T01:14:50.043Z,1.8
2023-01-15T01:17:55.521Z,1.3
2023-01-15T01:21:06.114Z,1.1
2023-01-15T01:23:59.045Z,3.2
2023-01-15T01:26:57.038Z,0.9
2023-01-15T01:30:01.677Z,3.5
2023-01-15T01:33:14.847Z,1.7
2023-01-15T01:36:09.906Z,1.6
2023-01-15T01:39:12.957Z,0.9
2023-01-15T01:42:18.043Z,2.4
2023-01-15T01:45:33.420Z,0.8
2023-01-15T01:48:30.881Z,0.7
2023-01-15T01:51:30.588Z,0.7
2023-01-15T01:54:32.968Z,0.8
2023-01-15T01:57:43.854Z,0.8
2023-01-15T02:00:54.285Z,0.4
2023-01-15T02:03:51.674Z,2.1
2023-01-15T02:06:57.019Z,1.1
2023-01-15T02:10:01.921Z,0.8
2023-01-15T02:13:07.401Z,0.9
2023-01-15T02:16:18.198Z,0.9
2023-01-15T02:19:20.966Z,1.2
2023-01-15T02:22:28.554Z,2.9
2023-01-15T02:25:20.800Z,0.5
2023-01-15T02:28:22.840Z,0.7
2023-01-15T02:31:27.349Z,1
2023-01-15T02:34:32.648Z,0.4
2023-01-15T02:37:37.476Z,0.3
2023-01-15T02:40:40.028Z,0.9
2023-01-15T02:43:50.594Z,1
2023-01-15T02:46:50.296Z,1.8
2023-01-15T02:49:52.421Z,0.9
2023-01-15T02:52:54.475Z,1.4
2023-01-15T02:56:09.950Z,1
2023-01-15T02:59:02.112Z,1
2023-01-15T03:02:04.369Z,0.3
2023-01-15T03:05:06.543Z,0.8
2023-01-15T03:08:10.983Z,0.8
2023-01-15T03:11:10.732Z,0.6
2023-01-15T03:14:14.509Z,0.3
2023-01-15T03:17:22.625Z,1.2
2023-01-15T03:20:29.886Z,0.5
2023-01-15T03:23:30.007Z,1.2
2023-01-15T03:26:32.152Z,0.3
2023-01-15T03:29:34.531Z,1.2
2023-01-15T03:32:39.697Z,1.2
2023-01-15T03:35:58.638Z,1.1
2023-01-15T03:39:05.260Z,0.2
2023-01-15T03:42:00.586Z,0.2
2023-01-15T03:45:00.622Z,0.4
2023-01-15T03:48:17.666Z,0.2
2023-01-15T03:51:26.603Z,0.4
2023-01-15T03:54:19.305Z,0.9
2023-01-15T03:57:25.094Z,0.2
2023-01-15T04:00:46.303Z,0.7
2023-01-15T04:03:36.331Z,1
2023-01-15T04:09:51.991Z,1
2023-01-15T04:12:54.504Z,1.4
2023-01-15T04:16:13.638Z,0.2
2023-01-15T04:19:29.913Z,0.6
2023-01-15T04:22:22.821Z,0.5
2023-01-15T04:25:07.973Z,0.8
2023-01-15T04:28:19.175Z,1.6
2023-01-15T04:31:20.574Z,1.1
2023-01-15T04:34:30.468Z,1.5
2023-01-15T04:37:23.764Z,0.6
2023-01-15T04:40:30.849Z,0.2
2023-01-15T04:43:31.275Z,0.3
2023-01-15T04:46:40.076Z,1.1
2023-01-15T04:49:42.109Z,3
2023-01-15T04:52:53.803Z,0.4
2023-01-15T04:55:52.367Z,0.5
2023-01-15T04:59:37.306Z,0.3
2023-01-15T05:02:06.886Z,5.7
2023-01-15T05:06:01.047Z,0.4
2023-01-15T05:08:38.836Z,0.6
2023-01-15T05:11:29.272Z,0.2
2023-01-15T05:14:28.710Z,1
2023-01-15T05:17:20.958Z,0.4
2023-01-15T05:20:23.230Z,0.3
2023-01-15T05:23:25.472Z,0.2
2023-01-15T05:26:50.926Z,3.8
2023-01-15T05:29:38.601Z,2.4
2023-01-15T05:32:44.710Z,0.9
2023-01-15T05:35:44.509Z,0.4
2023-01-15T05:38:51.792Z,1.8
2023-01-15T05:41:51.991Z,0.4
2023-01-15T05:45:10.339Z,3
2023-01-15T05:48:01.122Z,0.6
2023-01-15T05:51:05.407Z,0.4
2023-01-15T05:54:10.437Z,1
2023-01-15T05:57:10.978Z,1.4
2023-01-15T06:00:13.555Z,1.3
2023-01-15T06:03:18.563Z,1.3
2023-01-15T06:06:25.978Z,1.3
2023-01-15T06:09:25.864Z,1.8
2023-01-15T06:12:28.040Z,1.3
2023-01-15T06:15:34.559Z,1
2023-01-15T06:18:35.197Z,0.9
2023-01-15T06:21:47.901Z,0.5
2023-01-15T06:24:40.317Z,1.9
2023-01-15T06:27:49.790Z,2.9
2023-01-15T06:30:54.004Z,0.7
2023-01-15T06:33:56.329Z,1.1
2023-01-15T06:37:03.090Z,1.9
2023-01-15T06:40:12.767Z,1
2023-01-15T06:43:05.734Z,1.2
2023-01-15T06:46:11.941Z,2.1
2023-01-15T06:49:21.527Z,0.4
2023-01-15T06:52:30.407Z,2.4
2023-01-15T06:55:25.265Z,0.7
2023-01-15T06:58:27.520Z,0.7
2023-01-15T07:01:29.865Z,0.6
2023-01-15T07:04:32.000Z,0.7
2023-01-15T07:07:36.551Z,1.1
2023-01-15T07:10:41.179Z,0.7
2023-01-15T07:13:39.361Z,1.1
2023-01-15T07:16:44.559Z,0.5
2023-01-15T07:20:14.563Z,0.4
2023-01-15T07:23:07.466Z,1.6
2023-01-15T07:26:07.349Z,0.7
2023-01-15T07:28:59.432Z,1.1
2023-01-15T07:32:06.560Z,1.7
2023-01-15T07:35:06.926Z,1.9
2023-01-15T07:38:12.128Z,1.3
2023-01-15T07:41:15.916Z,1.2
2023-01-15T07:44:19.494Z,2
2023-01-15T07:47:44.705Z,0.7
2023-01-15T07:50:26.818Z,1.5
2023-01-15T07:53:28.974Z,1.9
2023-01-15T07:56:36.181Z,1.2
2023-01-15T07:59:39.324Z,0.9
2023-01-15T08:02:41.546Z,1
2023-01-15T08:05:49.351Z,1.2
2023-01-15T08:08:54.485Z,2.7
2023-01-15T08:12:02.449Z,0.9
2023-01-15T08:15:04.857Z,2.2
2023-01-15T08:18:12.691Z,0.6
2023-01-15T08:21:20.488Z,0.4
2023-01-15T08:24:25.721Z,1.3
2023-01-15T08:27:30.788Z,2.4
2023-01-15T08:30:35.393Z,0.9
2023-01-15T08:33:42.668Z,0.4
2023-01-15T08:36:45.883Z,0.4
2023-01-15T08:39:48.371Z,0.8
2023-01-15T08:42:50.429Z,0.5
2023-01-15T08:45:55.801Z,1.5
2023-01-15T08:49:05.851Z,0.7
2023-01-15T08:52:11.591Z,0.8
2023-01-15T08:55:20.354Z,0.3
2023-01-15T08:58:12.653Z,0.5
2023-01-15T09:01:17.785Z,0.3
2023-01-15T09:04:20.012Z,0.3
2023-01-15T09:07:31.254Z,1
2023-01-15T09:10:23.998Z,0.2
2023-01-15T09:13:26.011Z,0.4
2023-01-15T09:16:37.412Z,0.2
2023-01-15T09:19:30.670Z,1.7
2023-01-15T09:22:37.570Z,0.5
2023-01-15T09:25:52.960Z,0.2
2023-01-15T09:29:05.399Z,0.5
2023-01-15T09:31:50.681Z,0.3
2023-01-15T09:34:57.681Z,0.4
2023-01-15T09:38:03.224Z,2.7
2023-01-15T09:41:06.733Z,0.9
2023-01-15T09:44:29.871Z,0.3
2023-01-15T09:47:17.014Z,0.4
2023-01-15T09:50:25.765Z,0.2
2023-01-15T09:53:32.815Z,0.6
2023-01-15T09:56:36.081Z,0.3
2023-01-15T09:59:38.383Z,0.3
2023-01-15T10:02:43.519Z,0.7
2023-01-15T10:05:45.790Z,3
2023-01-15T10:08:48.674Z,0.8
2023-01-15T10:11:53.867Z,0.4
2023-01-15T10:15:01.791Z,0.5
2023-01-15T10:18:20.475Z,0.5
2023-01-15T10:21:03.228Z,0.4
2023-01-15T10:24:20.748Z,0.4
2023-01-15T10:27:14.639Z,1.9
2023-01-15T10:30:22.159Z,0.7
2023-01-15T10:33:22.367Z,0.8
2023-01-15T10:36:27.875Z,2
2023-01-15T10:39:32.826Z,0.8
2023-01-15T10:42:34.122Z,0.7
2023-01-15T10:45:36.228Z,0.4
2023-01-15T10:48:39.380Z,0.3
2023-01-15T10:51:44.912Z,1.2
2023-01-15T10:54:47.669Z,0.8
2023-01-15T10:58:05.392Z,0.6
2023-01-15T11:00:58.100Z,0.5
2023-01-15T11:04:00.722Z,1.6
2023-01-15T11:07:06.118Z,0.7
2023-01-15T11:10:14.411Z,1.7
2023-01-15T11:13:17.130Z,1.4
2023-01-15T11:16:27.117Z,1.1
2023-01-15T11:19:33.877Z,0.5
2023-01-15T11:22:31.406Z,1.4
2023-01-15T11:25:32.326Z,1.1
2023-01-15T11:28:37.075Z,0.6
2023-01-15T11:31:40.781Z,2.8
2023-01-15T11:34:44.663Z,2
2023-01-15T11:37:46.780Z,1.4
2023-01-15T11:40:59.614Z,0.5
2023-01-15T11:43:55.711Z,2.4
2023-01-15T11:46:55.828Z,1.5
2023-01-15T11:50:02.147Z,1.7
2023-01-15T11:53:10.925Z,3.1
2023-01-15T11:56:21.473Z,3.4
2023-01-15T11:59:44.838Z,6.7
2023-01-15T12:02:26.125Z,4.5
2023-01-15T12:05:28.093Z,3.5
2023-01-15T12:08:30.058Z,4.6
2023-01-15T12:11:32.090Z,4.1
2023-01-15T12:14:34.043Z,1.3
2023-01-15T12:17:37.465Z,3.3
2023-01-15T12:20:38.038Z,2
2023-01-15T12:23:39.982Z,1.6
2023-01-15T12:26:41.969Z,2.7
2023-01-15T12:29:43.920Z,2.7
2023-01-15T12:32:45.887Z,1.8
2023-01-15T12:35:47.859Z,2.7
2023-01-15T12:38:49.844Z,1.5
2023-01-15T12:41:51.833Z,4.4
2023-01-15T12:44:53.836Z,1.7
2023-01-15T12:47:55.798Z,1.4
2023-01-15T12:50:57.798Z,2.5
2023-01-15T12:53:59.783Z,10.1
2023-01-15T12:57:02.861Z,5.4
2023-01-15T13:00:03.770Z,4.3
2023-01-15T13:03:05.668Z,3.3
2023-01-15T13:06:07.684Z,4.5
2023-01-15T13:09:09.615Z,2.2
2023-01-15T13:12:11.696Z,3
2023-01-15T13:15:13.592Z,1.3
2023-01-15T13:18:15.602Z,2.5
2023-01-15T13:21:17.592Z,2.5
2023-01-15T13:24:19.553Z,2.5
2023-01-15T13:27:21.498Z,3.1
2023-01-15T13:30:23.500Z,1.5
2023-01-15T13:33:25.380Z,2.2
2023-01-15T13:36:27.340Z,1.7
2023-01-15T13:39:29.293Z,4.9
2023-01-15T13:42:31.256Z,3.5
2023-01-15T13:45:33.386Z,6
2023-01-15T13:48:35.255Z,1.9
2023-01-15T13:51:37.244Z,1.7
2023-01-15T13:54:39.246Z,2.8
2023-01-15T13:57:41.181Z,2.2
2023-01-15T14:00:43.321Z,3.2
2023-01-15T14:03:45.193Z,1.5
2023-01-15T14:06:47.140Z,3
2023-01-15T14:09:49.121Z,2.7
2023-01-15T14:12:51.100Z,1.6
2023-01-15T14:15:53.058Z,3.9
2023-01-15T14:18:55.002Z,2
2023-01-15T14:21:57.016Z,1.3
2023-01-15T14:24:58.956Z,2.2
2023-01-15T14:28:00.898Z,3.5
2023-01-15T14:31:02.860Z,1.8
2023-01-15T14:34:04.812Z,4.2
2023-01-15T14:37:06.822Z,3.1
2023-01-15T14:40:08.799Z,3.6
2023-01-15T14:43:10.707Z,2.3
2023-01-15T14:46:14.700Z,2.7
2023-01-15T14:49:14.635Z,4.5
2023-01-15T14:52:16.620Z,1.8
2023-01-15T14:55:18.587Z,5.2
2023-01-15T14:58:20.511Z,3.9
2023-01-15T15:01:22.687Z,3.6
2023-01-15T15:04:24.414Z,4.3
2023-01-15T15:07:26.408Z,3.7
2023-01-15T15:10:28.369Z,4.4
2023-01-15T15:13:30.365Z,4.1
2023-01-15T15:16:32.340Z,3
2023-01-15T15:19:34.262Z,3.4
2023-01-15T15:22:38.419Z,3.7
2023-01-15T15:25:39.481Z,5.6
2023-01-15T15:28:40.141Z,4.9
2023-01-15T15:31:42.091Z,4.5
2023-01-15T15:34:44.081Z,2.6
2023-01-15T15:37:46.007Z,3.8
2023-01-15T15:40:47.966Z,11.3
2023-01-15T15:43:49.929Z,7.5
2023-01-15T15:46:51.939Z,10.2
2023-01-15T15:49:53.879Z,5.6
2023-01-15T15:52:55.812Z,4.3
2023-01-15T15:55:57.835Z,6.5
2023-01-15T15:58:59.768Z,8.5
2023-01-15T16:02:01.835Z,5.6
2023-01-15T16:05:03.615Z,6.4
2023-01-15T16:08:05.587Z,4.8
2023-01-15T16:11:07.580Z,4.8
2023-01-15T16:14:09.529Z,6
2023-01-15T16:17:11.470Z,4
2023-01-15T16:20:13.470Z,5.2
2023-01-15T16:23:15.435Z,2.9
2023-01-15T16:26:17.392Z,2.3
2023-01-15T16:29:19.375Z,3.4
2023-01-15T16:32:21.289Z,2.7
2023-01-15T16:35:23.243Z,4.5
2023-01-15T16:38:25.237Z,4.2
2023-01-15T16:41:27.737Z,3.6
2023-01-15T16:44:29.136Z,3.5
2023-01-15T16:47:31.080Z,3.7
2023-01-15T16:50:33.043Z,5
2023-01-15T16:53:35.015Z,1.9
2023-01-15T16:56:37.004Z,2.1
2023-01-15T16:59:38.929Z,2.2
2023-01-15T17:02:40.900Z,1.9
2023-01-15T17:05:42.846Z,2.7
2023-01-15T17:08:44.874Z,1.6
2023-01-15T17:11:46.783Z,0.8
2023-01-15T17:14:48.789Z,3.5
2023-01-15T17:17:50.704Z,2.9
2023-01-15T17:20:52.904Z,2.9
2023-01-15T17:23:54.643Z,3.2
2023-01-15T17:26:56.615Z,3.7
2023-01-15T17:29:58.596Z,1.2
2023-01-15T17:33:00.555Z,1.1
2023-01-15T17:36:02.486Z,1.5
2023-01-15T17:39:04.441Z,1.6
2023-01-15T17:42:06.402Z,1.4
2023-01-15T17:45:08.368Z,1.7
2023-01-15T17:48:10.327Z,2.4
2023-01-15T17:51:12.307Z,1.6
2023-01-15T17:54:14.259Z,3.7
2023-01-15T17:57:16.255Z,1.8
2023-01-15T18:00:18.203Z,3.8
2023-01-15T18:03:20.157Z,3.3
2023-01-15T18:06:22.090Z,1.6
2023-01-15T18:09:24.039Z,1.1
2023-01-15T18:12:26.023Z,1.3
2023-01-15T18:15:27.952Z,7.7
2023-01-15T18:18:29.955Z,5.6
2023-01-15T18:21:31.891Z,5.8
2023-01-15T18:24:33.895Z,3.2
2023-01-15T18:27:35.798Z,2.7
2023-01-15T18:30:37.770Z,4.1
2023-01-15T18:33:39.718Z,2.8
2023-01-15T18:36:41.696Z,2.7
2023-01-15T18:39:43.671Z,2.7
2023-01-15T18:42:45.611Z,5.1
2023-01-15T18:45:47.612Z,5.1
2023-01-15T18:48:49.559Z,2.8
2023-01-15T18:51:51.479Z,3.8
2023-01-15T18:54:53.449Z,8.2
2023-01-15T18:57:55.433Z,10.6
2023-01-15T19:00:57.429Z,6.7
2023-01-15T19:03:59.326Z,5.2
2023-01-15T19:07:01.408Z,14.2
2023-01-15T19:10:03.401Z,10.1
2023-01-15T19:13:05.382Z,5.8
2023-01-15T19:16:07.301Z,6.6
2023-01-15T19:19:09.254Z,6.3
2023-01-15T19:22:11.199Z,3.7
2023-01-15T19:25:13.177Z,4.3
2023-01-15T19:28:18.172Z,7.6
2023-01-15T19:31:20.224Z,2.8
2023-01-15T19:34:33.395Z,4.2
2023-01-15T19:37:24.138Z,3.8
2023-01-15T19:40:26.084Z,9.6
2023-01-15T19:43:28.085Z,7.4
2023-01-15T19:46:30.030Z,6.1
2023-01-15T19:49:32.003Z,7.6
2023-01-15T19:52:33.967Z,5.2
2023-01-15T19:55:35.963Z,7.7
2023-01-15T19:58:37.909Z,8.1
2023-01-15T20:01:39.970Z,2.2
2023-01-15T20:04:41.980Z,3.3
2023-01-15T20:07:43.952Z,3.7
2023-01-15T20:10:46.110Z,6.6
2023-01-15T20:13:48.042Z,2.5
2023-01-15T20:16:50.053Z,4.6
2023-01-15T20:19:52.024Z,3.5
2023-01-15T20:22:54.004Z,5.5
2023-01-15T20:25:55.950Z,4.7
2023-01-15T20:28:57.887Z,4.1
2023-01-15T20:31:59.913Z,4.3
2023-01-15T20:35:01.861Z,2.3
2023-01-15T20:38:03.794Z,4.2
2023-01-15T20:41:05.752Z,4.9
2023-01-15T20:44:07.716Z,3.2
2023-01-15T20:47:09.685Z,7.5
2023-01-15T20:50:15.808Z,4.9
2023-01-15T20:53:16.626Z,4.4
2023-01-15T20:56:18.609Z,7.7
2023-01-15T20:59:20.689Z,4.1
2023-01-15T21:02:22.517Z,4.4
2023-01-15T21:05:24.487Z,7.4
2023-01-15T21:08:26.467Z,3.8
2023-01-15T21:11:28.436Z,5.9
2023-01-15T21:14:30.394Z,4.1
2023-01-15T21:17:32.385Z,2.9
2023-01-15T21:20:34.307Z,7.3
2023-01-15T21:23:36.265Z,6
2023-01-15T21:26:38.246Z,5.3
2023-01-15T21:29:40.182Z,3.1
2023-01-15T21:32:42.146Z,5.1
2023-01-15T21:35:44.105Z,5
2023-01-15T21:38:46.065Z,5.8
2023-01-15T21:41:48.058Z,5.6
2023-01-15T21:44:49.987Z,4.4
2023-01-15T21:47:51.983Z,4.4
2023-01-15T21:50:53.927Z,5.8
2023-01-15T21:53:56.613Z,4.3
2023-01-15T21:56:57.844Z,4.5
2023-01-15T21:59:59.801Z,5.3
2023-01-15T22:03:01.911Z,4.1
2023-01-15T22:06:03.734Z,4
2023-01-15T22:09:05.699Z,3
2023-01-15T22:12:07.657Z,4.1
2023-01-15T22:15:09.604Z,4.3
2023-01-15T22:18:11.595Z,4.7
2023-01-15T22:21:13.549Z,3.7
2023-01-15T22:24:15.480Z,4.8
2023-01-15T22:27:17.482Z,3.8
2023-01-15T22:30:19.405Z,5.4
2023-01-15T22:33:21.360Z,2.9
2023-01-15T22:36:23.348Z,5.8
2023-01-15T22:39:25.303Z,5.7
2023-01-15T22:42:27.283Z,7.3
2023-01-15T22:45:29.207Z,4.7
2023-01-15T22:48:31.170Z,6.9
2023-01-15T22:51:33.149Z,3.8
2023-01-15T22:54:35.144Z,5.4
2023-01-15T22:57:37.066Z,6.3
2023-01-15T23:00:39.028Z,5
2023-01-15T23:03:40.980Z,1.8
2023-01-15T23:06:42.947Z,4.8
2023-01-15T23:09:44.901Z,2.6
2023-01-15T23:12:46.857Z,5.7
2023-01-15T23:15:48.924Z,2.8
2023-01-15T23:18:50.797Z,3.3
2023-01-15T23:21:52.763Z,3.3
2023-01-15T23:24:54.743Z,3.3
2023-01-15T23:27:56.662Z,4.2
2023-01-15T23:30:58.639Z,4.2
2023-01-15T23:34:00.606Z,3.5
2023-01-15T23:37:02.574Z,3.5
2023-01-15T23:40:04.533Z,5
2023-01-15T23:43:06.455Z,7
2023-01-15T23:46:08.495Z,4.8
2023-01-15T23:49:10.383Z,1.7
2023-01-15T23:52:12.340Z,1.9
2023-01-15T23:55:14.301Z,2.8
2023-01-15T23:58:16.261Z,1.9
